Charles Town, WV (25414)

01:23 AM EDT die 26o September, anno 2016 (GMT -0400)
Vinton Farm | | Change Station

Elev 522 ft 39.27 °N, 77.86 °W | Updated 11 seconds ago

Mostly Cloudy
Plerumque Nubila
54.9 °F
Feels Like 54.9 °F
N
0.0
Ventus Variabilis Ventus from Inter Aquilonem et Eurum
Gusts 0.0 mph

Hodie
High -- | Low -- °F
--% Chance of Precip.
Yesterday
High -- | Low -- °F
Precip. -- in
Pressio 30.15 in
Visibilitas 10.0 milia passuum
Clouds Plerumque Nubila 2800 ft
Frigus in quo Ros apparet 54 °F
Umor 97%
Rainfall 0.00 in
Snow Depth Not available.
7:03 AM 7:01 PM
Waning Crescent, 22% visible
SPECI KMRB 260505Z AUTO 00000KT 10SM BKN028 12/11 A3015 RMK AO2 T01170106 TSNO
Pressio 30.15 in
Visibilitas 10.0 milia passuum
Clouds Plerumque Nubila 2800 ft
Frigus in quo Ros apparet 54 °F
Umor 97%
Rainfall 0.00 in
Snow Depth Not available.
7:03 AM 7:01 PM
Waning Crescent, 22% visible
SPECI KMRB 260505Z AUTO 00000KT 10SM BKN028 12/11 A3015 RMK AO2 T01170106 TSNO

10-Day Weather Forecast

Almanac

Astronomy

Sep. 26, 2016 Rise Set
Actual Time
Civil Twilight
Nautical Twilight
Astronomical Twilight
Moon
Length Of Visible Light
Length of Day
Tomorrow will be .
, % of the Moon is Illuminated

Today's Extremes

State Highs State Lows

Community

WunderPhotos

Upload Photos

1,941,852 photos uploaded!

WunderBlog® & News

Nearby

Air Quality

  Air Quality AQ Index Pollutant
Not available.

Snow Depth

Station Depth Elevation

Earthquake Activity

City Distance Mag. Time & Date
Minimum magnitude displayed is 2.5.

Coastal Water Temperatures

Locus Calor

Stations

Nearby Weather Stations

Station Location Temp Frigus Venti Frigus in quo Ros apparet Umor Ventus Precip. Elev Renovata Type
                   

Watches & Warnings

There are currently no watches in effect.